Time;durP1;ratioP1;P1;durP2;ratioP2;P2;SDS_P1;SDS_P2;PMS_P1;PMS_P2;Temp;Humidity;BMP_temperature;BMP_pressure;BME280_temperature;BME280_humidity;BME280_pressure;Samples;Min_cycle;Max_cycle;Signal;HPM_P1;HPM_P2
2021/01/20 00:01:27;;;;;;;3.33;1.55;;;2.70;99.90;;;;;;4931861;29;20076;-73
2021/01/20 00:03:53;;;;;;;8.35;2.55;;;2.70;99.90;;;;;;4931517;29;20534;-72
2021/01/20 00:06:19;;;;;;;5.82;2.22;;;2.60;99.90;;;;;;4930855;29;20079;-73
2021/01/20 00:08:46;;;;;;;5.55;2.22;;;2.60;99.90;;;;;;4930032;29;20074;-73
2021/01/20 00:11:12;;;;;;;6.22;2.33;;;2.60;99.90;;;;;;4930653;29;20079;-72
2021/01/20 00:13:38;;;;;;;8.00;2.47;;;2.60;99.90;;;;;;4930797;29;20498;-72
2021/01/20 00:16:05;;;;;;;9.18;2.65;;;2.70;99.90;;;;;;4929955;29;20079;-72
2021/01/20 00:18:31;;;;;;;7.32;2.30;;;2.70;99.90;;;;;;4929549;29;20139;-72
2021/01/20 00:20:59;;;;;;;6.13;2.30;;;2.60;99.90;;;;;;4931004;29;20514;-72
2021/01/20 00:23:25;;;;;;;8.30;3.78;;;2.70;99.90;;;;;;4929863;29;20150;-72
2021/01/20 00:25:51;;;;;;;8.85;3.63;;;2.90;99.90;;;;;;4931187;29;20143;-72
2021/01/20 00:28:18;;;;;;;8.95;3.35;;;2.90;99.90;;;;;;4944198;29;20094;-73
2021/01/20 00:30:45;;;;;;;9.25;3.53;;;2.80;99.90;;;;;;4930925;29;20043;-72
2021/01/20 00:33:12;;;;;;;9.07;4.00;;;2.80;99.90;;;;;;4931087;29;20090;-72
2021/01/20 00:35:39;;;;;;;7.60;3.17;;;2.80;99.90;;;;;;4944592;28;20040;-72
2021/01/20 00:38:05;;;;;;;11.02;3.92;;;2.80;99.90;;;;;;4930390;29;20078;-72
2021/01/20 00:40:32;;;;;;;5.75;1.80;;;2.70;99.90;;;;;;4929935;29;20052;-73
2021/01/20 00:42:58;;;;;;;9.80;3.92;;;2.80;99.90;;;;;;4928844;29;20573;-72
2021/01/20 00:45:24;;;;;;;10.07;3.58;;;2.80;99.90;;;;;;4929404;29;20330;-72
2021/01/20 00:47:52;;;;;;;8.13;3.10;;;2.70;99.90;;;;;;4928750;29;20483;-73
2021/01/20 00:50:19;;;;;;;12.52;2.90;;;2.60;99.90;;;;;;4932575;29;20075;-72
2021/01/20 00:52:45;;;;;;;5.88;2.30;;;2.60;99.90;;;;;;4931183;29;20062;-72
2021/01/20 00:55:14;;;;;;;7.75;2.70;;;2.60;99.90;;;;;;4929579;29;20134;-73
2021/01/20 00:57:41;;;;;;;5.22;1.50;;;2.60;99.90;;;;;;4928873;29;20623;-72
2021/01/20 01:00:08;;;;;;;5.68;2.00;;;2.60;99.90;;;;;;4930126;29;20453;-72
2021/01/20 01:02:36;;;;;;;6.10;2.55;;;2.60;99.90;;;;;;4928209;29;20570;-72
2021/01/20 01:05:06;;;;;;;7.18;2.58;;;2.70;99.90;;;;;;4930750;29;20383;-72
2021/01/20 01:07:33;;;;;;;7.15;2.00;;;2.60;99.90;;;;;;4929566;29;20138;-72
2021/01/20 01:09:59;;;;;;;7.28;2.13;;;2.60;99.90;;;;;;4930771;29;20075;-72
2021/01/20 01:12:25;;;;;;;5.53;2.00;;;2.70;99.90;;;;;;4928423;29;20052;-72
2021/01/20 01:14:51;;;;;;;5.30;1.60;;;2.60;99.90;;;;;;4922967;29;20355;-72
2021/01/20 01:17:18;;;;;;;4.53;1.48;;;2.70;99.90;;;;;;4929980;29;20050;-73
2021/01/20 01:19:44;;;;;;;4.68;2.15;;;2.70;99.90;;;;;;4933271;28;20051;-73
2021/01/20 01:22:12;;;;;;;5.13;1.58;;;2.70;99.90;;;;;;4930728;29;20068;-73
2021/01/20 01:24:39;;;;;;;5.35;1.85;;;2.70;99.90;;;;;;4933538;29;20103;-73
2021/01/20 01:27:06;;;;;;;6.25;2.00;;;2.70;99.90;;;;;;4934351;29;20134;-73
2021/01/20 01:29:33;;;;;;;4.97;1.60;;;2.80;99.90;;;;;;4934942;29;20443;-73
2021/01/20 01:31:59;;;;;;;4.93;1.60;;;2.80;99.90;;;;;;4935948;29;20154;-72
2021/01/20 01:34:26;;;;;;;6.20;1.95;;;2.70;99.90;;;;;;4938299;29;20059;-72
2021/01/20 01:36:52;;;;;;;5.15;1.60;;;2.70;99.90;;;;;;4935296;29;20131;-72
2021/01/20 01:39:19;;;;;;;4.78;1.98;;;2.70;99.90;;;;;;4941753;29;20122;-73
2021/01/20 01:41:46;;;;;;;6.95;2.22;;;2.70;99.90;;;;;;4933194;29;20530;-73
2021/01/20 01:44:12;;;;;;;3.65;1.70;;;2.80;99.90;;;;;;4934143;29;20398;-73
2021/01/20 01:46:38;;;;;;;3.65;1.38;;;2.90;99.90;;;;;;4940824;29;20079;-72
2021/01/20 01:49:04;;;;;;;5.60;1.65;;;2.90;99.90;;;;;;4932853;29;20499;-72
2021/01/20 01:51:31;;;;;;;6.22;1.70;;;2.90;99.90;;;;;;4933806;29;20062;-72
2021/01/20 01:53:58;;;;;;;4.53;1.13;;;2.90;99.90;;;;;;4949080;28;20067;-72
2021/01/20 01:56:24;;;;;;;5.25;1.90;;;3.00;99.90;;;;;;4931751;29;20315;-72
2021/01/20 01:58:52;;;;;;;6.07;1.70;;;2.90;99.90;;;;;;4941575;29;20130;-73
2021/01/20 02:01:19;;;;;;;6.03;1.80;;;3.00;99.90;;;;;;4934775;29;20573;-73
2021/01/20 02:03:52;;;;;;;4.15;1.38;;;3.00;99.90;;;;;;4933057;29;20139;-73
2021/01/20 02:06:19;;;;;;;3.70;1.52;;;3.00;99.90;;;;;;4933969;29;20529;-72
2021/01/20 02:08:49;;;;;;;5.03;2.05;;;3.00;99.90;;;;;;4933127;29;20151;-72
2021/01/20 02:11:37;;;;;;;2.30;1.20;;;3.00;99.90;;;;;;4948368;28;20142;-72
2021/01/20 02:14:24;;;;;;;6.30;1.95;;;3.10;99.90;;;;;;4931341;29;20083;-72
2021/01/20 02:17:17;;;;;;;5.20;2.20;;;3.20;99.90;;;;;;4938886;29;20566;-72
2021/01/20 02:20:05;;;;;;;6.95;1.48;;;3.20;99.90;;;;;;4933788;29;20492;-72
2021/01/20 02:23:13;;;;;;;4.40;1.55;;;3.30;99.90;;;;;;4937438;29;20063;-72
2021/01/20 02:25:58;;;;;;;5.88;1.60;;;3.20;99.90;;;;;;4913858;29;20210;-72
2021/01/20 02:28:53;;;;;;;3.83;1.58;;;3.20;99.90;;;;;;4927400;29;20079;-72
2021/01/20 02:31:23;;;;;;;5.10;1.98;;;3.20;99.90;;;;;;4929162;29;20055;-73
2021/01/20 02:33:52;;;;;;;4.70;1.77;;;3.20;99.90;;;;;;4933038;29;20078;-72
2021/01/20 02:36:20;;;;;;;5.70;2.00;;;3.20;99.90;;;;;;4930040;29;20051;-73
2021/01/20 02:38:48;;;;;;;3.47;0.98;;;3.20;99.90;;;;;;4936322;29;20070;-72
2021/01/20 02:41:26;;;;;;;3.33;1.15;;;3.30;99.90;;;;;;4933179;29;20123;-72
2021/01/20 02:43:53;;;;;;;5.20;1.65;;;3.30;99.90;;;;;;4932440;29;20467;-72
2021/01/20 02:46:20;;;;;;;3.40;1.30;;;3.30;99.90;;;;;;4932636;29;20102;-72
2021/01/20 02:48:49;;;;;;;4.05;1.65;;;3.30;99.90;;;;;;4931366;29;20074;-72
2021/01/20 02:51:27;;;;;;;4.82;2.03;;;3.30;99.90;;;;;;4929448;29;20055;-72
2021/01/20 02:53:58;;;;;;;4.93;1.80;;;3.30;99.90;;;;;;4937739;29;20403;-72
2021/01/20 02:56:25;;;;;;;3.97;1.70;;;3.20;99.90;;;;;;4933550;28;20148;-72
2021/01/20 02:58:54;;;;;;;6.00;1.58;;;3.30;99.90;;;;;;4936486;29;20051;-72
2021/01/20 03:01:24;;;;;;;3.95;1.50;;;3.30;99.90;;;;;;4934963;29;20537;-72
2021/01/20 03:03:52;;;;;;;4.65;1.33;;;3.30;99.90;;;;;;4933478;28;20122;-73
2021/01/20 03:06:20;;;;;;;5.80;1.95;;;3.30;99.90;;;;;;4936238;28;20055;-74
2021/01/20 03:08:49;;;;;;;7.45;2.33;;;3.30;99.90;;;;;;4926433;29;20052;-72
2021/01/20 03:11:15;;;;;;;5.43;1.85;;;3.30;99.90;;;;;;4931456;29;20079;-72
2021/01/20 03:13:45;;;;;;;4.55;1.75;;;3.30;99.90;;;;;;4931888;29;20103;-72
2021/01/20 03:16:11;;;;;;;3.78;1.45;;;3.40;99.90;;;;;;4934155;29;20579;-71
2021/01/20 03:18:38;;;;;;;3.92;1.55;;;3.40;99.90;;;;;;4930023;29;20131;-72
2021/01/20 03:21:05;;;;;;;4.60;1.75;;;3.40;99.90;;;;;;4932682;29;20098;-72
2021/01/20 03:23:35;;;;;;;4.68;1.70;;;3.30;99.90;;;;;;4941012;29;20450;-73
2021/01/20 03:26:01;;;;;;;5.65;1.90;;;3.50;99.90;;;;;;4930410;29;20094;-72
2021/01/20 03:28:28;;;;;;;5.72;1.80;;;3.40;99.90;;;;;;4937205;29;20083;-72
2021/01/20 03:30:54;;;;;;;4.15;1.20;;;3.30;99.90;;;;;;4939200;29;20139;-72
2021/01/20 03:33:20;;;;;;;3.65;1.20;;;3.50;99.90;;;;;;4939633;29;20055;-72
2021/01/20 03:35:47;;;;;;;3.75;1.50;;;3.50;99.90;;;;;;4934516;29;20405;-72
2021/01/20 03:38:13;;;;;;;4.25;1.55;;;3.60;99.90;;;;;;4931293;28;20107;-72
2021/01/20 03:40:39;;;;;;;5.30;1.67;;;3.50;99.90;;;;;;4930684;29;20079;-72
2021/01/20 03:43:06;;;;;;;8.77;2.22;;;3.50;99.90;;;;;;4932773;29;20044;-72
2021/01/20 03:45:32;;;;;;;4.18;1.63;;;3.50;99.90;;;;;;4929525;29;20463;-73
2021/01/20 03:47:58;;;;;;;4.95;1.58;;;3.40;99.90;;;;;;4931838;29;20044;-72
2021/01/20 03:50:25;;;;;;;5.40;1.73;;;3.50;99.90;;;;;;4930110;29;20459;-73
2021/01/20 03:52:51;;;;;;;3.00;1.25;;;3.50;99.90;;;;;;4945916;28;20083;-72
2021/01/20 03:55:18;;;;;;;4.78;1.10;;;3.40;99.90;;;;;;4930431;29;20503;-73
2021/01/20 03:57:44;;;;;;;3.28;1.30;;;3.40;99.90;;;;;;4931413;29;20062;-73
2021/01/20 04:00:11;;;;;;;2.55;1.33;;;3.40;99.90;;;;;;4935903;29;20051;-72
2021/01/20 04:02:37;;;;;;;3.25;1.23;;;3.40;99.90;;;;;;4931623;29;20550;-73
2021/01/20 04:05:04;;;;;;;3.50;1.23;;;3.40;99.90;;;;;;4938431;29;20083;-73
2021/01/20 04:07:30;;;;;;;4.88;1.55;;;3.50;99.90;;;;;;4933854;29;20394;-72
2021/01/20 04:09:57;;;;;;;5.82;1.63;;;3.50;99.90;;;;;;4931518;29;20062;-72
2021/01/20 04:12:24;;;;;;;4.57;1.70;;;3.50;99.90;;;;;;4934889;29;20444;-72
2021/01/20 04:14:50;;;;;;;7.20;1.85;;;3.50;99.90;;;;;;4931430;29;20155;-73
2021/01/20 04:17:16;;;;;;;6.03;1.92;;;3.50;99.90;;;;;;4930419;29;20083;-72
2021/01/20 04:19:43;;;;;;;4.57;1.70;;;3.50;99.90;;;;;;4921698;28;20126;-73
2021/01/20 04:22:09;;;;;;;5.20;1.58;;;3.50;99.90;;;;;;4931470;29;20505;-72
2021/01/20 04:24:36;;;;;;;6.78;2.15;;;3.50;99.90;;;;;;4945390;29;20047;-72
2021/01/20 04:27:02;;;;;;;5.75;1.67;;;3.50;99.90;;;;;;4931132;29;20204;-72
2021/01/20 04:29:29;;;;;;;7.90;1.85;;;3.50;99.90;;;;;;4937341;29;20182;-73
2021/01/20 04:31:55;;;;;;;5.32;1.58;;;3.40;99.90;;;;;;4935579;29;20471;-73
2021/01/20 04:34:22;;;;;;;4.18;1.67;;;3.50;99.90;;;;;;4934916;29;20080;-73
2021/01/20 04:36:48;;;;;;;5.47;1.67;;;3.50;99.90;;;;;;4937152;28;20075;-72
2021/01/20 04:39:14;;;;;;;5.43;1.58;;;3.50;99.90;;;;;;4933286;29;20577;-73
2021/01/20 04:41:41;;;;;;;5.60;1.98;;;3.50;99.90;;;;;;4929984;29;20406;-73
2021/01/20 04:44:07;;;;;;;4.82;1.42;;;3.50;99.90;;;;;;4931884;29;20162;-72
2021/01/20 04:46:36;;;;;;;5.20;1.83;;;3.60;99.90;;;;;;4928334;29;20052;-73
2021/01/20 04:49:02;;;;;;;5.28;1.98;;;3.60;99.90;;;;;;4933008;29;20047;-72
2021/01/20 04:51:31;;;;;;;5.80;2.25;;;3.60;99.90;;;;;;4931028;29;20422;-73
2021/01/20 04:53:58;;;;;;;5.22;2.08;;;3.50;99.90;;;;;;4934489;29;20075;-73
2021/01/20 04:56:25;;;;;;;6.18;1.83;;;3.50;99.90;;;;;;4930565;29;20194;-73
2021/01/20 04:58:52;;;;;;;11.07;2.72;;;3.60;99.90;;;;;;4934010;29;20079;-73
2021/01/20 05:01:19;;;;;;;5.93;1.77;;;3.60;99.90;;;;;;4937243;29;20102;-73
2021/01/20 05:03:46;;;;;;;7.78;2.10;;;3.60;99.90;;;;;;4934151;29;20208;-73
2021/01/20 05:06:13;;;;;;;8.43;2.00;;;3.50;99.90;;;;;;4935628;29;20482;-73
2021/01/20 05:08:39;;;;;;;7.53;1.73;;;3.60;99.90;;;;;;4939609;29;20467;-73
2021/01/20 05:11:05;;;;;;;8.98;2.78;;;3.60;99.90;;;;;;4934618;29;20051;-73
2021/01/20 05:13:32;;;;;;;5.85;2.17;;;3.60;99.90;;;;;;4934249;29;20135;-73
2021/01/20 05:15:58;;;;;;;6.13;2.20;;;3.60;99.90;;;;;;4933078;29;20056;-73
2021/01/20 05:18:26;;;;;;;4.78;1.88;;;3.70;99.90;;;;;;4937691;29;20047;-73
2021/01/20 05:20:53;;;;;;;5.57;2.63;;;3.70;99.90;;;;;;4939335;29;20056;-73
2021/01/20 05:23:26;;;;;;;5.65;2.03;;;3.70;99.90;;;;;;4934001;29;20052;-74
2021/01/20 05:25:52;;;;;;;10.85;2.78;;;3.70;99.90;;;;;;4932881;29;20056;-73
2021/01/20 05:28:23;;;;;;;5.30;1.85;;;3.70;99.90;;;;;;4934211;29;20151;-73
2021/01/20 05:30:52;;;;;;;7.45;2.15;;;3.70;99.90;;;;;;4939219;28;20070;-73
2021/01/20 05:33:21;;;;;;;5.72;2.00;;;3.70;99.90;;;;;;4927397;29;20149;-73
2021/01/20 05:36:09;;;;;;;6.88;1.75;;;3.70;99.90;;;;;;4939541;29;20055;-73
2021/01/20 05:38:43;;;;;;;14.68;4.13;;;3.70;99.90;;;;;;4929241;29;20115;-73
2021/01/20 05:41:28;;;;;;;11.25;4.57;;;3.70;99.90;;;;;;4931287;29;20138;-73
2021/01/20 05:44:12;;;;;;;12.75;4.40;;;3.70;99.90;;;;;;4935803;29;20066;-73
2021/01/20 05:46:40;;;;;;;10.80;5.40;;;3.70;99.90;;;;;;4933048;28;20096;-73
2021/01/20 05:49:27;;;;;;;7.60;3.30;;;3.70;99.90;;;;;;4942329;29;20102;-73
2021/01/20 05:51:55;;;;;;;9.23;3.92;;;3.80;99.90;;;;;;4934087;29;20607;-73
2021/01/20 05:54:37;;;;;;;11.02;3.63;;;3.80;99.90;;;;;;4932882;29;20079;-73
2021/01/20 05:57:11;;;;;;;9.20;3.15;;;3.70;99.90;;;;;;4942766;28;20488;-73
2021/01/20 05:59:38;;;;;;;8.02;3.33;;;3.70;99.90;;;;;;4934911;29;20126;-73
2021/01/20 06:02:05;;;;;;;12.05;3.40;;;3.70;99.90;;;;;;4945986;28;20417;-73
2021/01/20 06:04:32;;;;;;;7.40;2.22;;;3.80;99.90;;;;;;4948442;29;20114;-73
2021/01/20 06:07:08;;;;;;;7.63;2.80;;;3.90;99.90;;;;;;4933633;29;20079;-73
2021/01/20 06:09:36;;;;;;;7.20;3.08;;;3.80;99.90;;;;;;4940217;28;20076;-73
2021/01/20 06:12:04;;;;;;;8.85;2.58;;;3.90;99.90;;;;;;4932033;29;20043;-73
2021/01/20 06:14:31;;;;;;;8.50;3.20;;;3.80;99.90;;;;;;4962272;28;20075;-73
2021/01/20 06:17:35;;;;;;;8.13;3.00;;;3.80;99.90;;;;;;4933384;29;20048;-73
2021/01/20 06:20:05;;;;;;;6.55;2.50;;;3.90;99.90;;;;;;4917876;29;20043;-73
2021/01/20 06:22:33;;;;;;;4.90;2.42;;;3.80;99.90;;;;;;4933022;29;20086;-72
2021/01/20 06:25:15;;;;;;;10.70;3.20;;;3.80;99.90;;;;;;4940116;28;20043;-72
2021/01/20 06:28:02;;;;;;;11.27;3.42;;;3.80;99.90;;;;;;4927319;29;20047;-73
2021/01/20 06:30:34;;;;;;;7.32;3.60;;;3.90;99.90;;;;;;4941077;28;20546;-72
2021/01/20 06:33:05;;;;;;;7.28;2.95;;;3.80;99.90;;;;;;4953322;29;20433;-73
2021/01/20 06:35:43;;;;;;;8.48;3.53;;;3.70;99.90;;;;;;4948232;28;20083;-73
2021/01/20 06:38:28;;;;;;;10.05;3.47;;;3.80;99.90;;;;;;4939412;29;20083;-73
2021/01/20 06:41:21;;;;;;;6.93;3.50;;;3.80;99.90;;;;;;4929999;29;20079;-73
2021/01/20 06:43:48;;;;;;;8.40;3.30;;;3.80;99.90;;;;;;4932160;29;20043;-73
2021/01/20 06:46:21;;;;;;;9.18;2.97;;;3.90;99.90;;;;;;4947851;28;20077;-73
2021/01/20 06:48:51;;;;;;;10.57;3.78;;;3.90;99.90;;;;;;4947434;29;20063;-73
2021/01/20 06:51:18;;;;;;;7.15;2.80;;;3.90;99.90;;;;;;4932219;29;20675;-73
2021/01/20 06:54:05;;;;;;;12.32;3.58;;;3.90;99.90;;;;;;4942575;28;20142;-73
2021/01/20 06:56:40;;;;;;;11.15;4.15;;;4.00;99.90;;;;;;4951233;28;20097;-73
2021/01/20 06:59:30;;;;;;;7.45;2.78;;;3.90;99.90;;;;;;4949965;29;20083;-73
2021/01/20 07:02:02;;;;;;;9.30;3.05;;;3.90;99.90;;;;;;4937466;29;20040;-73
2021/01/20 07:04:38;;;;;;;7.65;3.35;;;3.90;99.90;;;;;;4934854;29;20044;-74
2021/01/20 07:07:06;;;;;;;15.45;3.80;;;3.90;99.90;;;;;;4931140;29;20499;-72
2021/01/20 07:09:57;;;;;;;9.55;4.65;;;3.90;99.90;;;;;;4934060;29;20503;-72
2021/01/20 07:12:25;;;;;;;9.68;4.15;;;3.90;99.90;;;;;;4950134;28;20083;-72
2021/01/20 07:14:53;;;;;;;8.32;2.63;;;3.90;99.90;;;;;;4946478;29;20155;-73
2021/01/20 07:17:20;;;;;;;11.35;3.55;;;4.00;99.90;;;;;;4930656;29;20052;-73
2021/01/20 07:19:48;;;;;;;10.18;3.13;;;4.00;99.90;;;;;;4936345;28;20573;-73
2021/01/20 07:22:15;;;;;;;9.55;2.72;;;4.00;99.90;;;;;;4946445;29;20126;-72
2021/01/20 07:24:42;;;;;;;9.05;3.20;;;3.90;99.90;;;;;;4934398;28;20498;-73
2021/01/20 07:27:13;;;;;;;8.27;3.60;;;4.00;99.90;;;;;;4931259;29;20070;-73
2021/01/20 07:29:40;;;;;;;7.55;2.25;;;3.90;99.90;;;;;;4935249;29;20062;-73
2021/01/20 07:32:07;;;;;;;6.82;2.63;;;4.00;99.90;;;;;;4933848;28;20055;-72
2021/01/20 07:34:38;;;;;;;7.40;2.35;;;4.00;99.90;;;;;;4932242;29;20134;-73
2021/01/20 07:37:13;;;;;;;8.23;2.67;;;4.00;99.90;;;;;;4931585;29;20055;-72
2021/01/20 07:39:41;;;;;;;7.22;3.10;;;4.10;99.90;;;;;;4937015;29;20279;-73
2021/01/20 07:42:08;;;;;;;9.80;3.42;;;4.10;99.90;;;;;;4932354;29;20085;-72
2021/01/20 07:44:36;;;;;;;7.90;2.65;;;4.10;99.90;;;;;;4934802;29;20162;-73
2021/01/20 07:47:04;;;;;;;9.45;2.55;;;4.20;99.90;;;;;;4930707;29;20414;-73
2021/01/20 07:49:35;;;;;;;7.90;2.83;;;4.30;99.90;;;;;;4930355;29;20083;-72
2021/01/20 07:52:05;;;;;;;12.60;4.07;;;4.20;99.90;;;;;;4929958;29;20047;-72
2021/01/20 07:54:48;;;;;;;8.55;2.95;;;4.20;99.90;;;;;;4930436;29;20614;-73
2021/01/20 07:57:19;;;;;;;11.27;3.13;;;4.20;99.90;;;;;;4933330;28;20047;-73
2021/01/20 08:00:03;;;;;;;7.75;2.63;;;4.30;99.90;;;;;;4947375;28;20071;-72
2021/01/20 08:02:30;;;;;;;6.20;2.30;;;4.30;99.90;;;;;;4928590;29;20055;-73
2021/01/20 08:05:00;;;;;;;8.95;2.33;;;4.40;99.90;;;;;;4930673;29;20573;-73
2021/01/20 08:07:26;;;;;;;6.60;2.83;;;4.40;99.90;;;;;;4946078;28;20047;-73
2021/01/20 08:09:53;;;;;;;10.95;2.72;;;4.50;99.90;;;;;;4931719;28;20075;-73
2021/01/20 08:12:26;;;;;;;14.30;4.43;;;4.50;99.90;;;;;;4931491;29;20130;-73
2021/01/20 08:14:52;;;;;;;9.10;2.88;;;4.50;99.90;;;;;;4934401;29;20200;-73
2021/01/20 08:17:19;;;;;;;9.63;3.20;;;4.60;99.90;;;;;;4928650;29;20491;-70
2021/01/20 08:19:48;;;;;;;6.68;2.05;;;4.70;99.90;;;;;;4925257;29;20055;-71
2021/01/20 08:22:15;;;;;;;7.93;2.60;;;4.70;99.90;;;;;;4934916;29;20078;-70
2021/01/20 08:24:47;;;;;;;6.00;1.80;;;4.70;99.90;;;;;;4931720;29;20258;-70
2021/01/20 08:27:15;;;;;;;5.68;2.67;;;4.70;99.90;;;;;;4945574;28;20101;-70
2021/01/20 08:29:48;;;;;;;9.65;3.38;;;4.80;99.90;;;;;;4938891;29;20051;-70
2021/01/20 08:32:15;;;;;;;10.25;2.95;;;4.80;99.90;;;;;;4929405;28;20145;-70
2021/01/20 08:34:43;;;;;;;9.13;2.60;;;4.80;99.90;;;;;;4927985;29;20048;-70
2021/01/20 08:37:20;;;;;;;7.65;2.00;;;5.00;99.90;;;;;;4928964;29;20074;-70
2021/01/20 08:39:57;;;;;;;8.18;2.30;;;5.00;99.90;;;;;;4935272;29;20083;-71
2021/01/20 08:42:36;;;;;;;10.15;2.50;;;5.00;99.90;;;;;;4936586;29;20059;-71
2021/01/20 08:45:15;;;;;;;10.05;2.20;;;5.10;99.90;;;;;;4927352;29;20184;-70
2021/01/20 08:48:05;;;;;;;9.32;2.45;;;5.20;99.90;;;;;;4930602;29;20079;-70
2021/01/20 08:50:44;;;;;;;5.65;2.30;;;5.20;99.90;;;;;;4928443;29;20047;-70
2021/01/20 08:53:13;;;;;;;7.72;2.35;;;5.20;99.90;;;;;;4936275;29;20091;-70
2021/01/20 08:55:48;;;;;;;8.88;2.65;;;5.30;99.90;;;;;;4932057;29;20051;-70
2021/01/20 08:58:29;;;;;;;9.48;3.47;;;5.30;99.90;;;;;;4931764;29;20071;-70
2021/01/20 09:01:01;;;;;;;10.77;3.20;;;5.40;99.90;;;;;;4930317;29;20055;-70
2021/01/20 09:03:38;;;;;;;9.73;2.47;;;5.50;99.90;;;;;;4930889;29;20054;-70
2021/01/20 09:06:12;;;;;;;9.45;2.33;;;5.50;99.90;;;;;;4931290;29;20052;-70
2021/01/20 09:08:39;;;;;;;6.53;2.08;;;5.60;99.90;;;;;;4928938;29;20146;-70
2021/01/20 09:11:06;;;;;;;8.25;2.03;;;5.60;99.90;;;;;;4926100;29;20143;-70
2021/01/20 09:13:32;;;;;;;7.78;1.58;;;5.60;99.90;;;;;;4944403;29;20067;-70
2021/01/20 09:15:58;;;;;;;6.95;1.98;;;5.70;99.90;;;;;;4928602;29;20052;-70
2021/01/20 09:18:26;;;;;;;9.45;2.50;;;5.80;99.90;;;;;;4927725;29;20189;-71
2021/01/20 09:20:54;;;;;;;12.32;3.63;;;5.80;99.90;;;;;;4928901;29;20046;-72
2021/01/20 09:23:21;;;;;;;7.07;2.10;;;5.90;99.90;;;;;;4951182;28;20050;-71
2021/01/20 09:25:48;;;;;;;7.05;2.42;;;5.90;99.90;;;;;;4929659;29;20082;-71
2021/01/20 09:28:15;;;;;;;9.73;2.10;;;5.90;99.90;;;;;;4928558;29;20115;-71
2021/01/20 09:30:41;;;;;;;7.25;1.88;;;6.00;99.90;;;;;;4927359;29;20122;-72
2021/01/20 09:33:08;;;;;;;5.72;1.90;;;6.10;99.90;;;;;;4924587;29;20048;-72
2021/01/20 09:35:35;;;;;;;6.47;1.67;;;6.10;99.90;;;;;;4927193;29;20056;-69
2021/01/20 09:38:03;;;;;;;5.10;1.63;;;6.20;99.90;;;;;;4925040;29;20052;-70
2021/01/20 09:40:30;;;;;;;6.32;1.90;;;6.20;99.90;;;;;;4929274;29;20055;-71
2021/01/20 09:42:57;;;;;;;3.83;1.10;;;6.20;99.90;;;;;;4930234;29;20123;-71
2021/01/20 09:45:28;;;;;;;5.22;1.45;;;6.10;99.90;;;;;;4932829;29;20051;-69
2021/01/20 09:47:56;;;;;;;6.03;1.80;;;6.30;99.90;;;;;;4933068;29;20047;-70
2021/01/20 09:50:24;;;;;;;4.72;1.55;;;6.30;99.90;;;;;;4934001;29;20146;-69
2021/01/20 09:52:52;;;;;;;8.27;2.03;;;6.30;99.90;;;;;;4927396;29;20052;-72
2021/01/20 09:55:20;;;;;;;7.18;1.73;;;6.50;99.90;;;;;;4932685;29;20048;-72
2021/01/20 09:57:47;;;;;;;9.32;2.03;;;6.50;99.90;;;;;;4932925;29;20079;-72
2021/01/20 10:00:14;;;;;;;11.63;2.10;;;6.50;99.90;;;;;;4931886;29;20407;-72
2021/01/20 10:02:40;;;;;;;8.20;1.80;;;6.50;99.90;;;;;;4933151;29;20052;-72
2021/01/20 10:05:09;;;;;;;8.27;1.40;;;6.50;99.90;;;;;;4933154;29;20431;-72
2021/01/20 10:07:36;;;;;;;8.57;1.95;;;6.50;99.90;;;;;;4932356;29;20047;-72
2021/01/20 10:10:07;;;;;;;13.50;2.67;;;6.60;99.90;;;;;;4928656;29;21031;-71
2021/01/20 10:12:35;;;;;;;6.27;2.30;;;6.60;99.90;;;;;;4932422;29;20047;-73
2021/01/20 10:15:03;;;;;;;4.68;2.00;;;6.60;99.90;;;;;;4929930;29;20103;-72
2021/01/20 10:17:30;;;;;;;10.95;2.55;;;6.70;99.90;;;;;;4929247;29;20153;-71
2021/01/20 10:19:56;;;;;;;6.20;1.70;;;6.70;99.90;;;;;;4926391;29;20048;-71
2021/01/20 10:22:23;;;;;;;8.98;1.88;;;6.70;99.90;;;;;;4932469;29;20067;-72
2021/01/20 10:24:49;;;;;;;6.13;2.10;;;6.80;99.90;;;;;;4930590;29;20403;-71
2021/01/20 10:27:15;;;;;;;5.35;1.20;;;6.80;99.90;;;;;;4925104;29;20055;-72
2021/01/20 10:29:42;;;;;;;6.43;1.73;;;6.80;99.90;;;;;;4939188;28;20103;-71
2021/01/20 10:32:09;;;;;;;9.23;1.63;;;6.90;99.90;;;;;;4932207;29;20074;-71
2021/01/20 10:34:36;;;;;;;9.25;2.10;;;6.90;99.90;;;;;;4931573;29;20107;-72
2021/01/20 10:37:04;;;;;;;7.93;1.60;;;7.00;99.90;;;;;;4931084;29;20134;-72
2021/01/20 10:39:30;;;;;;;5.80;1.40;;;7.10;99.90;;;;;;4933254;29;20059;-71
2021/01/20 10:41:56;;;;;;;6.82;1.83;;;7.00;99.90;;;;;;4931134;29;20118;-70
2021/01/20 10:44:23;;;;;;;4.53;1.58;;;7.10;99.90;;;;;;4929384;29;20118;-70
2021/01/20 10:46:49;;;;;;;8.63;1.55;;;7.10;99.90;;;;;;4929786;29;20154;-71
2021/01/20 10:49:16;;;;;;;9.70;1.95;;;7.20;99.90;;;;;;4931134;29;20399;-70
2021/01/20 10:51:42;;;;;;;4.65;1.60;;;7.20;99.90;;;;;;4932505;29;20118;-72
2021/01/20 10:54:09;;;;;;;10.55;1.30;;;7.20;99.90;;;;;;4945958;29;20047;-72
2021/01/20 10:56:36;;;;;;;8.30;1.55;;;7.20;99.90;;;;;;4930770;29;20079;-71
2021/01/20 10:59:03;;;;;;;6.45;1.40;;;7.20;99.90;;;;;;4929971;29;20043;-71
2021/01/20 11:01:30;;;;;;;5.68;1.55;;;7.30;99.90;;;;;;4932580;29;20151;-71
2021/01/20 11:03:57;;;;;;;4.10;1.40;;;7.40;99.90;;;;;;4932371;29;20043;-71
2021/01/20 11:06:24;;;;;;;5.97;1.55;;;7.40;99.90;;;;;;4930919;29;20074;-72
2021/01/20 11:08:50;;;;;;;6.22;1.70;;;7.50;99.90;;;;;;4932159;29;20051;-71
2021/01/20 11:11:18;;;;;;;6.13;1.15;;;7.50;99.90;;;;;;4932466;29;20098;-71
2021/01/20 11:13:45;;;;;;;7.57;1.58;;;7.50;99.90;;;;;;4928230;29;20553;-72
2021/01/20 11:16:12;;;;;;;4.55;1.38;;;7.60;99.90;;;;;;4931198;29;20044;-72
2021/01/20 11:18:39;;;;;;;6.50;1.27;;;7.60;99.90;;;;;;4946452;28;20135;-72
2021/01/20 11:21:06;;;;;;;6.30;1.55;;;7.70;99.90;;;;;;4930584;29;20110;-72
2021/01/20 11:23:35;;;;;;;5.05;1.23;;;7.80;99.90;;;;;;4931532;29;20122;-72
2021/01/20 11:26:08;;;;;;;4.93;1.45;;;7.90;99.90;;;;;;4930616;29;20415;-72
2021/01/20 11:28:35;;;;;;;2.90;0.98;;;7.90;99.90;;;;;;4931237;29;20050;-72
2021/01/20 11:31:01;;;;;;;5.45;1.20;;;7.90;99.90;;;;;;4931960;29;20482;-73
2021/01/20 11:33:37;;;;;;;7.70;1.23;;;8.00;99.90;;;;;;4930118;29;20047;-72
2021/01/20 11:36:05;;;;;;;2.88;0.90;;;7.90;99.90;;;;;;4945181;29;20039;-72
2021/01/20 11:38:32;;;;;;;10.38;1.40;;;8.00;99.90;;;;;;4930486;29;20052;-71
2021/01/20 11:40:58;;;;;;;3.78;1.33;;;8.00;99.90;;;;;;4928901;29;20134;-68
2021/01/20 11:43:25;;;;;;;8.57;1.38;;;8.10;99.90;;;;;;4931567;29;20056;-70
2021/01/20 11:45:52;;;;;;;6.30;1.30;;;8.20;99.90;;;;;;4931236;29;20139;-70
2021/01/20 11:48:18;;;;;;;5.15;1.20;;;8.30;99.90;;;;;;4929565;29;20071;-69
2021/01/20 11:50:46;;;;;;;6.75;1.20;;;8.30;99.90;;;;;;4930814;29;20051;-71
2021/01/20 11:53:19;;;;;;;5.70;0.90;;;8.30;99.90;;;;;;4930309;29;20538;-73
2021/01/20 11:55:46;;;;;;;3.50;0.80;;;8.40;99.90;;;;;;4929625;29;20514;-72
2021/01/20 11:58:12;;;;;;;5.80;1.38;;;8.40;99.90;;;;;;4929700;29;20477;-72
2021/01/20 12:00:39;;;;;;;10.35;1.65;;;8.40;99.90;;;;;;4923928;29;20099;-72
2021/01/20 12:03:05;;;;;;;4.55;0.90;;;8.40;99.90;;;;;;4923656;29;20044;-72
2021/01/20 12:05:32;;;;;;;6.63;1.00;;;8.40;99.90;;;;;;4928125;29;20079;-71
2021/01/20 12:07:58;;;;;;;5.95;1.20;;;8.50;99.90;;;;;;4929619;29;20497;-72
2021/01/20 12:10:24;;;;;;;7.60;1.33;;;8.50;99.90;;;;;;4928041;29;20229;-74
2021/01/20 12:12:51;;;;;;;5.07;0.98;;;8.60;99.90;;;;;;4929177;29;20146;-74
2021/01/20 12:15:17;;;;;;;6.05;1.00;;;8.60;99.90;;;;;;4929983;29;20056;-74
2021/01/20 12:17:44;;;;;;;2.95;0.70;;;8.80;99.90;;;;;;4923203;29;20360;-73
2021/01/20 12:20:12;;;;;;;3.28;1.10;;;8.80;99.90;;;;;;4916269;29;20063;-75
2021/01/20 12:22:39;;;;;;;4.20;0.90;;;8.80;99.90;;;;;;4945783;28;20106;-74
2021/01/20 12:25:07;;;;;;;2.88;1.23;;;8.90;99.90;;;;;;4929762;29;20055;-73
2021/01/20 12:27:34;;;;;;;4.18;1.00;;;8.80;99.90;;;;;;4929761;29;20143;-74
2021/01/20 12:30:00;;;;;;;2.80;0.73;;;8.90;99.90;;;;;;4931304;29;20047;-74
2021/01/20 12:32:27;;;;;;;4.47;1.00;;;9.00;99.90;;;;;;4930015;29;20138;-73
2021/01/20 12:34:53;;;;;;;6.38;1.08;;;9.00;99.90;;;;;;4923105;29;20063;-73
2021/01/20 12:37:20;;;;;;;3.75;0.88;;;9.10;99.90;;;;;;4931256;29;20055;-73
2021/01/20 12:39:46;;;;;;;2.97;0.90;;;9.10;99.90;;;;;;4928219;29;20513;-74
2021/01/20 12:42:13;;;;;;;6.40;1.25;;;9.00;99.90;;;;;;4929411;29;20082;-72
2021/01/20 12:44:39;;;;;;;4.20;1.00;;;9.00;99.90;;;;;;4931212;29;20179;-72
2021/01/20 12:47:05;;;;;;;5.10;1.10;;;9.10;99.90;;;;;;4931034;29;20103;-73
2021/01/20 12:49:32;;;;;;;7.40;1.10;;;9.10;99.90;;;;;;4931458;29;20123;-73
2021/01/20 12:51:58;;;;;;;7.82;1.13;;;9.10;99.90;;;;;;4943886;28;20535;-72
2021/01/20 12:54:25;;;;;;;3.67;1.02;;;9.20;99.90;;;;;;4939767;29;20491;-72
2021/01/20 12:56:55;;;;;;;6.07;1.10;;;9.20;99.90;;;;;;4930056;29;20511;-72
2021/01/20 12:59:21;;;;;;;4.32;1.10;;;9.30;99.90;;;;;;4929989;29;20055;-74
2021/01/20 13:01:48;;;;;;;7.97;1.00;;;9.30;99.90;;;;;;4929919;29;20421;-73
2021/01/20 13:04:14;;;;;;;4.50;1.35;;;9.30;99.90;;;;;;4931267;29;20407;-74
2021/01/20 13:06:52;;;;;;;5.32;1.48;;;9.20;99.90;;;;;;4929519;29;20464;-72